sensor_id;sensor_type;location;lat;lon;timestamp;P1;durP1;ratioP1;P2;durP2;ratioP2
58615;SDS011;44385;51.992;4.206;2023-04-15T00:00:07;6.10;;;4.30;;
58615;SDS011;44385;51.992;4.206;2023-04-15T00:02:34;9.02;;;4.43;;
58615;SDS011;44385;51.992;4.206;2023-04-15T00:05:01;7.75;;;3.42;;
58615;SDS011;44385;51.992;4.206;2023-04-15T00:07:27;8.82;;;3.95;;
58615;SDS011;44385;51.992;4.206;2023-04-15T00:09:55;8.27;;;4.55;;
58615;SDS011;44385;51.992;4.206;2023-04-15T00:12:22;7.68;;;4.20;;
58615;SDS011;44385;51.992;4.206;2023-04-15T00:14:49;9.98;;;4.07;;
58615;SDS011;44385;51.992;4.206;2023-04-15T00:17:16;7.95;;;4.03;;
58615;SDS011;44385;51.992;4.206;2023-04-15T00:19:42;5.75;;;4.00;;
58615;SDS011;44385;51.992;4.206;2023-04-15T00:22:09;8.85;;;4.18;;
58615;SDS011;44385;51.992;4.206;2023-04-15T00:24:36;6.18;;;4.18;;
58615;SDS011;44385;51.992;4.206;2023-04-15T00:27:04;6.68;;;4.03;;
58615;SDS011;44385;51.992;4.206;2023-04-15T00:29:30;7.97;;;4.00;;
58615;SDS011;44385;51.992;4.206;2023-04-15T00:31:57;5.20;;;4.22;;
58615;SDS011;44385;51.992;4.206;2023-04-15T00:34:23;11.00;;;4.22;;
58615;SDS011;44385;51.992;4.206;2023-04-15T00:36:50;8.43;;;4.25;;
58615;SDS011;44385;51.992;4.206;2023-04-15T00:39:16;8.60;;;4.47;;
58615;SDS011;44385;51.992;4.206;2023-04-15T00:41:43;8.32;;;4.00;;
58615;SDS011;44385;51.992;4.206;2023-04-15T00:44:11;10.35;;;4.85;;
58615;SDS011;44385;51.992;4.206;2023-04-15T00:46:38;9.93;;;4.90;;
58615;SDS011;44385;51.992;4.206;2023-04-15T00:49:05;7.43;;;4.43;;
58615;SDS011;44385;51.992;4.206;2023-04-15T00:51:32;8.88;;;5.03;;
58615;SDS011;44385;51.992;4.206;2023-04-15T00:54:01;9.30;;;4.75;;
58615;SDS011;44385;51.992;4.206;2023-04-15T00:56:30;7.22;;;4.80;;
58615;SDS011;44385;51.992;4.206;2023-04-15T00:58:58;8.52;;;4.35;;
58615;SDS011;44385;51.992;4.206;2023-04-15T01:01:26;8.13;;;4.50;;
58615;SDS011;44385;51.992;4.206;2023-04-15T01:03:54;7.30;;;3.90;;
58615;SDS011;44385;51.992;4.206;2023-04-15T01:06:21;7.45;;;4.60;;
58615;SDS011;44385;51.992;4.206;2023-04-15T01:08:48;10.27;;;5.28;;
58615;SDS011;44385;51.992;4.206;2023-04-15T01:11:15;8.70;;;4.53;;
58615;SDS011;44385;51.992;4.206;2023-04-15T01:13:42;10.10;;;5.07;;
58615;SDS011;44385;51.992;4.206;2023-04-15T01:16:08;10.68;;;4.93;;
58615;SDS011;44385;51.992;4.206;2023-04-15T01:18:36;7.90;;;4.43;;
58615;SDS011;44385;51.992;4.206;2023-04-15T01:21:03;10.57;;;5.50;;
58615;SDS011;44385;51.992;4.206;2023-04-15T01:23:30;10.93;;;5.45;;
58615;SDS011;44385;51.992;4.206;2023-04-15T01:25:58;11.50;;;5.57;;
58615;SDS011;44385;51.992;4.206;2023-04-15T01:28:24;10.15;;;5.78;;
58615;SDS011;44385;51.992;4.206;2023-04-15T01:31:03;9.75;;;5.60;;
58615;SDS011;44385;51.992;4.206;2023-04-15T01:33:31;8.68;;;5.57;;
58615;SDS011;44385;51.992;4.206;2023-04-15T01:35:58;9.68;;;5.35;;
58615;SDS011;44385;51.992;4.206;2023-04-15T01:38:25;14.32;;;6.18;;
58615;SDS011;44385;51.992;4.206;2023-04-15T01:40:52;9.25;;;5.50;;
58615;SDS011;44385;51.992;4.206;2023-04-15T01:43:20;10.40;;;5.32;;
58615;SDS011;44385;51.992;4.206;2023-04-15T01:45:46;10.88;;;6.40;;
58615;SDS011;44385;51.992;4.206;2023-04-15T01:48:13;7.93;;;5.45;;
58615;SDS011;44385;51.992;4.206;2023-04-15T01:50:39;8.07;;;5.50;;
58615;SDS011;44385;51.992;4.206;2023-04-15T01:53:06;10.73;;;5.70;;
58615;SDS011;44385;51.992;4.206;2023-04-15T01:55:33;7.25;;;5.28;;
58615;SDS011;44385;51.992;4.206;2023-04-15T01:57:59;12.07;;;5.70;;
58615;SDS011;44385;51.992;4.206;2023-04-15T02:00:27;8.75;;;5.65;;
58615;SDS011;44385;51.992;4.206;2023-04-15T02:02:54;10.90;;;6.17;;
58615;SDS011;44385;51.992;4.206;2023-04-15T02:05:21;11.63;;;6.38;;
58615;SDS011;44385;51.992;4.206;2023-04-15T02:07:47;9.98;;;6.22;;
58615;SDS011;44385;51.992;4.206;2023-04-15T02:10:14;9.88;;;6.43;;
58615;SDS011;44385;51.992;4.206;2023-04-15T02:12:40;9.07;;;5.82;;
58615;SDS011;44385;51.992;4.206;2023-04-15T02:15:07;8.50;;;6.18;;
58615;SDS011;44385;51.992;4.206;2023-04-15T02:17:35;8.38;;;5.72;;
58615;SDS011;44385;51.992;4.206;2023-04-15T02:20:02;12.07;;;5.93;;
58615;SDS011;44385;51.992;4.206;2023-04-15T02:22:30;10.07;;;5.60;;
58615;SDS011;44385;51.992;4.206;2023-04-15T02:24:56;7.32;;;6.10;;
58615;SDS011;44385;51.992;4.206;2023-04-15T02:27:22;9.45;;;6.32;;
58615;SDS011;44385;51.992;4.206;2023-04-15T02:29:49;9.43;;;6.32;;
58615;SDS011;44385;51.992;4.206;2023-04-15T02:32:16;8.77;;;6.38;;
58615;SDS011;44385;51.992;4.206;2023-04-15T02:34:44;8.98;;;6.45;;
58615;SDS011;44385;51.992;4.206;2023-04-15T02:37:11;14.05;;;7.18;;
58615;SDS011;44385;51.992;4.206;2023-04-15T02:39:38;6.97;;;6.32;;
58615;SDS011;44385;51.992;4.206;2023-04-15T02:42:04;9.13;;;6.35;;
58615;SDS011;44385;51.992;4.206;2023-04-15T02:44:31;10.15;;;6.45;;
58615;SDS011;44385;51.992;4.206;2023-04-15T02:46:59;8.27;;;6.47;;
58615;SDS011;44385;51.992;4.206;2023-04-15T02:49:25;9.65;;;7.25;;
58615;SDS011;44385;51.992;4.206;2023-04-15T02:51:55;7.68;;;6.63;;
58615;SDS011;44385;51.992;4.206;2023-04-15T02:54:22;9.10;;;7.30;;
58615;SDS011;44385;51.992;4.206;2023-04-15T02:56:49;9.48;;;6.60;;
58615;SDS011;44385;51.992;4.206;2023-04-15T02:59:16;8.68;;;6.68;;
58615;SDS011;44385;51.992;4.206;2023-04-15T03:01:42;9.70;;;7.00;;
58615;SDS011;44385;51.992;4.206;2023-04-15T03:04:09;9.13;;;6.85;;
58615;SDS011;44385;51.992;4.206;2023-04-15T03:06:35;8.70;;;6.47;;
58615;SDS011;44385;51.992;4.206;2023-04-15T03:09:05;12.60;;;7.65;;
58615;SDS011;44385;51.992;4.206;2023-04-15T03:11:32;8.50;;;6.60;;
58615;SDS011;44385;51.992;4.206;2023-04-15T03:13:59;11.35;;;6.50;;
58615;SDS011;44385;51.992;4.206;2023-04-15T03:16:25;10.55;;;6.50;;
58615;SDS011;44385;51.992;4.206;2023-04-15T03:18:52;10.45;;;7.03;;
58615;SDS011;44385;51.992;4.206;2023-04-15T03:21:19;9.38;;;6.80;;
58615;SDS011;44385;51.992;4.206;2023-04-15T03:23:45;8.98;;;6.70;;
58615;SDS011;44385;51.992;4.206;2023-04-15T03:26:23;9.82;;;6.65;;
58615;SDS011;44385;51.992;4.206;2023-04-15T03:28:51;10.88;;;6.82;;
58615;SDS011;44385;51.992;4.206;2023-04-15T03:31:17;11.02;;;7.25;;
58615;SDS011;44385;51.992;4.206;2023-04-15T03:33:44;9.63;;;7.35;;
58615;SDS011;44385;51.992;4.206;2023-04-15T03:36:10;7.60;;;6.47;;
58615;SDS011;44385;51.992;4.206;2023-04-15T03:38:37;9.60;;;6.90;;
58615;SDS011;44385;51.992;4.206;2023-04-15T03:41:04;8.23;;;6.72;;
58615;SDS011;44385;51.992;4.206;2023-04-15T03:43:31;8.07;;;6.78;;
58615;SDS011;44385;51.992;4.206;2023-04-15T03:45:58;9.20;;;7.07;;
58615;SDS011;44385;51.992;4.206;2023-04-15T03:48:24;8.13;;;6.55;;
58615;SDS011;44385;51.992;4.206;2023-04-15T03:50:51;9.02;;;7.57;;
58615;SDS011;44385;51.992;4.206;2023-04-15T03:53:17;8.75;;;7.45;;
58615;SDS011;44385;51.992;4.206;2023-04-15T03:55:43;9.50;;;7.40;;
58615;SDS011;44385;51.992;4.206;2023-04-15T03:58:10;9.27;;;7.47;;
58615;SDS011;44385;51.992;4.206;2023-04-15T04:00:40;11.07;;;6.67;;
58615;SDS011;44385;51.992;4.206;2023-04-15T04:03:07;11.30;;;7.38;;
58615;SDS011;44385;51.992;4.206;2023-04-15T04:05:33;9.48;;;7.50;;
58615;SDS011;44385;51.992;4.206;2023-04-15T04:08:01;9.70;;;7.38;;
58615;SDS011;44385;51.992;4.206;2023-04-15T04:10:27;10.73;;;7.97;;
58615;SDS011;44385;51.992;4.206;2023-04-15T04:12:54;9.15;;;7.35;;
58615;SDS011;44385;51.992;4.206;2023-04-15T04:15:20;9.55;;;7.43;;
58615;SDS011;44385;51.992;4.206;2023-04-15T04:17:50;10.38;;;7.82;;
58615;SDS011;44385;51.992;4.206;2023-04-15T04:20:17;12.45;;;7.90;;
58615;SDS011;44385;51.992;4.206;2023-04-15T04:22:43;10.23;;;7.45;;
58615;SDS011;44385;51.992;4.206;2023-04-15T04:25:10;10.18;;;7.45;;
58615;SDS011;44385;51.992;4.206;2023-04-15T04:27:37;10.48;;;7.85;;
58615;SDS011;44385;51.992;4.206;2023-04-15T04:30:04;11.75;;;6.90;;
58615;SDS011;44385;51.992;4.206;2023-04-15T04:32:30;12.20;;;8.00;;
58615;SDS011;44385;51.992;4.206;2023-04-15T04:34:58;10.75;;;8.18;;
58615;SDS011;44385;51.992;4.206;2023-04-15T04:37:25;12.32;;;8.07;;
58615;SDS011;44385;51.992;4.206;2023-04-15T04:39:52;11.57;;;7.93;;
58615;SDS011;44385;51.992;4.206;2023-04-15T04:42:19;9.80;;;7.90;;
58615;SDS011;44385;51.992;4.206;2023-04-15T04:44:45;9.25;;;7.82;;
58615;SDS011;44385;51.992;4.206;2023-04-15T04:47:12;9.45;;;7.22;;
58615;SDS011;44385;51.992;4.206;2023-04-15T04:49:39;10.23;;;7.25;;
58615;SDS011;44385;51.992;4.206;2023-04-15T04:52:07;11.70;;;7.70;;
58615;SDS011;44385;51.992;4.206;2023-04-15T04:54:33;13.65;;;8.23;;
58615;SDS011;44385;51.992;4.206;2023-04-15T04:56:59;9.85;;;8.38;;
58615;SDS011;44385;51.992;4.206;2023-04-15T04:59:26;11.95;;;8.38;;
58615;SDS011;44385;51.992;4.206;2023-04-15T05:01:53;9.45;;;7.65;;
58615;SDS011;44385;51.992;4.206;2023-04-15T05:04:20;11.70;;;8.23;;
58615;SDS011;44385;51.992;4.206;2023-04-15T05:06:46;10.98;;;8.35;;
58615;SDS011;44385;51.992;4.206;2023-04-15T05:09:15;10.70;;;8.73;;
58615;SDS011;44385;51.992;4.206;2023-04-15T05:11:41;8.70;;;7.90;;
58615;SDS011;44385;51.992;4.206;2023-04-15T05:14:07;12.35;;;8.15;;
58615;SDS011;44385;51.992;4.206;2023-04-15T05:16:34;9.35;;;7.95;;
58615;SDS011;44385;51.992;4.206;2023-04-15T05:19:00;13.70;;;8.93;;
58615;SDS011;44385;51.992;4.206;2023-04-15T05:21:30;12.18;;;9.18;;
58615;SDS011;44385;51.992;4.206;2023-04-15T05:23:56;10.68;;;8.38;;
58615;SDS011;44385;51.992;4.206;2023-04-15T05:26:24;14.88;;;8.98;;
58615;SDS011;44385;51.992;4.206;2023-04-15T05:28:51;10.57;;;8.13;;
58615;SDS011;44385;51.992;4.206;2023-04-15T05:31:17;9.13;;;8.05;;
58615;SDS011;44385;51.992;4.206;2023-04-15T05:33:44;9.20;;;8.18;;
58615;SDS011;44385;51.992;4.206;2023-04-15T05:36:10;13.05;;;9.38;;
58615;SDS011;44385;51.992;4.206;2023-04-15T05:41:06;11.60;;;8.27;;
58615;SDS011;44385;51.992;4.206;2023-04-15T05:43:35;11.93;;;8.85;;
58615;SDS011;44385;51.992;4.206;2023-04-15T05:46:01;10.60;;;9.18;;
58615;SDS011;44385;51.992;4.206;2023-04-15T05:48:28;9.85;;;7.93;;
58615;SDS011;44385;51.992;4.206;2023-04-15T05:50:54;10.52;;;9.45;;
58615;SDS011;44385;51.992;4.206;2023-04-15T05:53:21;10.75;;;8.25;;
58615;SDS011;44385;51.992;4.206;2023-04-15T05:55:47;12.60;;;9.07;;
58615;SDS011;44385;51.992;4.206;2023-04-15T05:58:16;12.17;;;9.53;;
58615;SDS011;44385;51.992;4.206;2023-04-15T06:00:44;12.50;;;9.68;;
58615;SDS011;44385;51.992;4.206;2023-04-15T06:03:10;9.00;;;7.80;;
58615;SDS011;44385;51.992;4.206;2023-04-15T06:05:37;11.60;;;8.63;;
58615;SDS011;44385;51.992;4.206;2023-04-15T06:08:03;14.98;;;8.50;;
58615;SDS011;44385;51.992;4.206;2023-04-15T06:10:30;9.40;;;8.50;;
58615;SDS011;44385;51.992;4.206;2023-04-15T06:13:00;11.43;;;8.60;;
58615;SDS011;44385;51.992;4.206;2023-04-15T06:15:26;10.65;;;8.85;;
58615;SDS011;44385;51.992;4.206;2023-04-15T06:17:54;8.90;;;7.95;;
58615;SDS011;44385;51.992;4.206;2023-04-15T06:20:20;11.73;;;8.60;;
58615;SDS011;44385;51.992;4.206;2023-04-15T06:22:48;11.18;;;8.45;;
58615;SDS011;44385;51.992;4.206;2023-04-15T06:25:17;9.68;;;8.68;;
58615;SDS011;44385;51.992;4.206;2023-04-15T06:27:43;10.30;;;7.80;;
58615;SDS011;44385;51.992;4.206;2023-04-15T06:30:10;11.77;;;8.73;;
58615;SDS011;44385;51.992;4.206;2023-04-15T06:32:39;12.93;;;9.15;;
58615;SDS011;44385;51.992;4.206;2023-04-15T06:35:07;12.57;;;9.02;;
58615;SDS011;44385;51.992;4.206;2023-04-15T06:37:34;13.38;;;9.50;;
58615;SDS011;44385;51.992;4.206;2023-04-15T06:40:00;10.80;;;9.23;;
58615;SDS011;44385;51.992;4.206;2023-04-15T06:42:29;12.27;;;8.18;;
58615;SDS011;44385;51.992;4.206;2023-04-15T06:44:58;11.93;;;8.88;;
58615;SDS011;44385;51.992;4.206;2023-04-15T06:47:25;13.57;;;8.65;;
58615;SDS011;44385;51.992;4.206;2023-04-15T06:49:51;13.63;;;8.23;;
58615;SDS011;44385;51.992;4.206;2023-04-15T06:52:19;12.18;;;9.48;;
58615;SDS011;44385;51.992;4.206;2023-04-15T06:54:45;11.68;;;8.98;;
58615;SDS011;44385;51.992;4.206;2023-04-15T06:57:12;11.45;;;8.27;;
58615;SDS011;44385;51.992;4.206;2023-04-15T06:59:39;11.45;;;8.95;;
58615;SDS011;44385;51.992;4.206;2023-04-15T07:02:07;10.32;;;8.20;;
58615;SDS011;44385;51.992;4.206;2023-04-15T07:04:35;12.00;;;8.65;;
58615;SDS011;44385;51.992;4.206;2023-04-15T07:07:02;13.15;;;8.75;;
58615;SDS011;44385;51.992;4.206;2023-04-15T07:09:33;10.00;;;8.48;;
58615;SDS011;44385;51.992;4.206;2023-04-15T07:11:59;11.02;;;8.80;;
58615;SDS011;44385;51.992;4.206;2023-04-15T07:14:25;13.93;;;8.98;;
58615;SDS011;44385;51.992;4.206;2023-04-15T07:16:52;11.07;;;9.18;;
58615;SDS011;44385;51.992;4.206;2023-04-15T07:19:18;9.45;;;8.40;;
58615;SDS011;44385;51.992;4.206;2023-04-15T07:21:45;11.02;;;8.65;;
58615;SDS011;44385;51.992;4.206;2023-04-15T07:24:12;10.88;;;8.80;;
58615;SDS011;44385;51.992;4.206;2023-04-15T07:26:43;13.68;;;8.45;;
58615;SDS011;44385;51.992;4.206;2023-04-15T07:29:09;11.45;;;8.50;;
58615;SDS011;44385;51.992;4.206;2023-04-15T07:31:35;10.13;;;8.55;;
58615;SDS011;44385;51.992;4.206;2023-04-15T07:34:02;11.32;;;8.82;;
58615;SDS011;44385;51.992;4.206;2023-04-15T07:36:31;10.57;;;8.73;;
58615;SDS011;44385;51.992;4.206;2023-04-15T07:38:58;9.27;;;8.35;;
58615;SDS011;44385;51.992;4.206;2023-04-15T07:41:26;8.85;;;7.90;;
58615;SDS011;44385;51.992;4.206;2023-04-15T07:43:53;10.23;;;8.70;;
58615;SDS011;44385;51.992;4.206;2023-04-15T07:46:20;9.65;;;7.78;;
58615;SDS011;44385;51.992;4.206;2023-04-15T07:48:51;8.40;;;7.60;;
58615;SDS011;44385;51.992;4.206;2023-04-15T07:51:17;9.23;;;7.50;;
58615;SDS011;44385;51.992;4.206;2023-04-15T07:53:45;8.93;;;7.70;;
58615;SDS011;44385;51.992;4.206;2023-04-15T07:56:14;8.35;;;7.45;;
58615;SDS011;44385;51.992;4.206;2023-04-15T07:58:41;9.27;;;7.53;;
58615;SDS011;44385;51.992;4.206;2023-04-15T08:01:09;8.65;;;7.30;;
58615;SDS011;44385;51.992;4.206;2023-04-15T08:03:35;9.55;;;7.80;;
58615;SDS011;44385;51.992;4.206;2023-04-15T08:06:02;8.02;;;7.22;;
58615;SDS011;44385;51.992;4.206;2023-04-15T08:08:29;11.75;;;8.10;;
58615;SDS011;44385;51.992;4.206;2023-04-15T08:10:56;10.35;;;7.93;;
58615;SDS011;44385;51.992;4.206;2023-04-15T08:13:22;11.30;;;7.43;;
58615;SDS011;44385;51.992;4.206;2023-04-15T08:15:52;8.02;;;7.30;;
58615;SDS011;44385;51.992;4.206;2023-04-15T08:18:20;8.23;;;7.43;;
58615;SDS011;44385;51.992;4.206;2023-04-15T08:20:46;11.23;;;7.30;;
58615;SDS011;44385;51.992;4.206;2023-04-15T08:23:13;8.32;;;7.43;;
58615;SDS011;44385;51.992;4.206;2023-04-15T08:25:40;9.57;;;7.18;;
58615;SDS011;44385;51.992;4.206;2023-04-15T08:28:07;11.02;;;8.20;;
58615;SDS011;44385;51.992;4.206;2023-04-15T08:30:34;8.32;;;7.40;;
58615;SDS011;44385;51.992;4.206;2023-04-15T08:33:00;8.52;;;7.57;;
58615;SDS011;44385;51.992;4.206;2023-04-15T08:35:28;8.85;;;7.47;;
58615;SDS011;44385;51.992;4.206;2023-04-15T08:37:55;8.85;;;7.70;;
58615;SDS011;44385;51.992;4.206;2023-04-15T08:40:22;9.20;;;7.65;;
58615;SDS011;44385;51.992;4.206;2023-04-15T08:42:52;9.70;;;7.80;;
58615;SDS011;44385;51.992;4.206;2023-04-15T08:45:19;9.55;;;7.80;;
58615;SDS011;44385;51.992;4.206;2023-04-15T08:47:46;9.73;;;8.68;;
58615;SDS011;44385;51.992;4.206;2023-04-15T08:50:14;10.20;;;8.27;;
58615;SDS011;44385;51.992;4.206;2023-04-15T08:52:42;10.68;;;9.30;;
58615;SDS011;44385;51.992;4.206;2023-04-15T08:55:09;9.18;;;8.25;;
58615;SDS011;44385;51.992;4.206;2023-04-15T08:57:39;9.80;;;8.32;;
58615;SDS011;44385;51.992;4.206;2023-04-15T09:00:06;8.15;;;7.35;;
58615;SDS011;44385;51.992;4.206;2023-04-15T09:02:33;9.13;;;8.23;;
58615;SDS011;44385;51.992;4.206;2023-04-15T09:05:00;10.07;;;7.47;;
58615;SDS011;44385;51.992;4.206;2023-04-15T09:07:29;8.20;;;7.47;;
58615;SDS011;44385;51.992;4.206;2023-04-15T09:09:57;8.13;;;7.15;;
58615;SDS011;44385;51.992;4.206;2023-04-15T09:12:23;8.55;;;7.75;;
58615;SDS011;44385;51.992;4.206;2023-04-15T09:14:50;9.75;;;7.38;;
58615;SDS011;44385;51.992;4.206;2023-04-15T09:17:17;10.20;;;6.65;;
58615;SDS011;44385;51.992;4.206;2023-04-15T09:19:44;8.55;;;6.20;;
58615;SDS011;44385;51.992;4.206;2023-04-15T09:22:10;8.15;;;7.35;;
58615;SDS011;44385;51.992;4.206;2023-04-15T09:24:38;9.02;;;7.25;;
58615;SDS011;44385;51.992;4.206;2023-04-15T09:27:08;10.60;;;7.85;;
58615;SDS011;44385;51.992;4.206;2023-04-15T09:29:35;7.87;;;6.57;;
58615;SDS011;44385;51.992;4.206;2023-04-15T09:32:08;9.50;;;6.82;;
58615;SDS011;44385;51.992;4.206;2023-04-15T09:34:35;6.97;;;6.35;;
58615;SDS011;44385;51.992;4.206;2023-04-15T09:37:02;8.23;;;6.57;;
58615;SDS011;44385;51.992;4.206;2023-04-15T09:39:34;6.95;;;6.22;;
58615;SDS011;44385;51.992;4.206;2023-04-15T09:42:11;7.03;;;5.20;;
58615;SDS011;44385;51.992;4.206;2023-04-15T09:44:44;5.20;;;4.78;;
58615;SDS011;44385;51.992;4.206;2023-04-15T09:47:25;6.22;;;5.13;;
58615;SDS011;44385;51.992;4.206;2023-04-15T09:49:54;5.80;;;5.25;;
58615;SDS011;44385;51.992;4.206;2023-04-15T09:52:20;5.20;;;4.70;;
58615;SDS011;44385;51.992;4.206;2023-04-15T09:54:47;5.25;;;4.75;;
58615;SDS011;44385;51.992;4.206;2023-04-15T09:57:17;5.35;;;4.82;;
58615;SDS011;44385;51.992;4.206;2023-04-15T09:59:43;6.43;;;4.67;;
58615;SDS011;44385;51.992;4.206;2023-04-15T10:02:10;5.07;;;4.60;;
58615;SDS011;44385;51.992;4.206;2023-04-15T10:04:39;14.82;;;5.20;;
58615;SDS011;44385;51.992;4.206;2023-04-15T10:07:06;5.65;;;4.30;;
58615;SDS011;44385;51.992;4.206;2023-04-15T10:09:34;4.43;;;4.00;;
58615;SDS011;44385;51.992;4.206;2023-04-15T10:12:01;5.60;;;4.00;;
58615;SDS011;44385;51.992;4.206;2023-04-15T10:14:34;4.75;;;4.25;;
58615;SDS011;44385;51.992;4.206;2023-04-15T10:17:02;5.53;;;4.50;;
58615;SDS011;44385;51.992;4.206;2023-04-15T10:19:30;6.30;;;3.85;;
58615;SDS011;44385;51.992;4.206;2023-04-15T10:21:57;4.38;;;3.88;;
58615;SDS011;44385;51.992;4.206;2023-04-15T10:24:24;6.38;;;3.70;;
58615;SDS011;44385;51.992;4.206;2023-04-15T10:26:51;5.45;;;3.80;;
58615;SDS011;44385;51.992;4.206;2023-04-15T10:29:17;4.28;;;3.55;;
58615;SDS011;44385;51.992;4.206;2023-04-15T10:31:46;3.60;;;3.15;;
58615;SDS011;44385;51.992;4.206;2023-04-15T10:34:13;3.70;;;3.40;;
58615;SDS011;44385;51.992;4.206;2023-04-15T10:36:43;3.53;;;3.22;;
58615;SDS011;44385;51.992;4.206;2023-04-15T10:42:04;3.22;;;2.95;;
58615;SDS011;44385;51.992;4.206;2023-04-15T10:44:31;5.95;;;3.17;;
58615;SDS011;44385;51.992;4.206;2023-04-15T10:46:59;4.82;;;3.47;;
58615;SDS011;44385;51.992;4.206;2023-04-15T10:49:25;7.90;;;3.83;;
58615;SDS011;44385;51.992;4.206;2023-04-15T10:51:52;4.25;;;3.58;;
58615;SDS011;44385;51.992;4.206;2023-04-15T10:54:29;6.57;;;3.38;;
58615;SDS011;44385;51.992;4.206;2023-04-15T10:57:06;3.70;;;3.40;;
58615;SDS011;44385;51.992;4.206;2023-04-15T10:59:35;4.65;;;2.95;;
58615;SDS011;44385;51.992;4.206;2023-04-15T11:02:03;2.83;;;2.53;;
58615;SDS011;44385;51.992;4.206;2023-04-15T11:09:57;4.70;;;2.58;;
58615;SDS011;44385;51.992;4.206;2023-04-15T11:12:31;4.78;;;2.85;;
58615;SDS011;44385;51.992;4.206;2023-04-15T11:14:58;7.45;;;2.60;;
58615;SDS011;44385;51.992;4.206;2023-04-15T11:17:27;6.13;;;3.88;;
58615;SDS011;44385;51.992;4.206;2023-04-15T11:19:54;3.92;;;3.63;;
58615;SDS011;44385;51.992;4.206;2023-04-15T11:22:20;4.30;;;3.88;;
58615;SDS011;44385;51.992;4.206;2023-04-15T11:24:47;6.55;;;4.75;;
58615;SDS011;44385;51.992;4.206;2023-04-15T11:27:19;5.32;;;4.80;;
58615;SDS011;44385;51.992;4.206;2023-04-15T11:29:45;5.45;;;4.93;;
58615;SDS011;44385;51.992;4.206;2023-04-15T11:32:12;5.82;;;4.70;;
58615;SDS011;44385;51.992;4.206;2023-04-15T11:34:39;5.60;;;4.32;;
58615;SDS011;44385;51.992;4.206;2023-04-15T11:37:06;6.32;;;4.60;;
58615;SDS011;44385;51.992;4.206;2023-04-15T11:39:33;4.50;;;3.72;;
58615;SDS011;44385;51.992;4.206;2023-04-15T11:41:59;5.35;;;3.47;;
58615;SDS011;44385;51.992;4.206;2023-04-15T11:44:25;4.43;;;3.17;;
58615;SDS011;44385;51.992;4.206;2023-04-15T11:46:53;6.72;;;3.88;;
58615;SDS011;44385;51.992;4.206;2023-04-15T11:49:27;5.78;;;3.63;;
58615;SDS011;44385;51.992;4.206;2023-04-15T11:51:55;5.35;;;3.60;;
58615;SDS011;44385;51.992;4.206;2023-04-15T11:54:21;6.07;;;3.70;;
58615;SDS011;44385;51.992;4.206;2023-04-15T11:56:51;5.50;;;3.42;;
58615;SDS011;44385;51.992;4.206;2023-04-15T11:59:18;5.85;;;3.83;;
58615;SDS011;44385;51.992;4.206;2023-04-15T12:01:45;11.88;;;4.30;;
58615;SDS011;44385;51.992;4.206;2023-04-15T12:04:11;10.30;;;4.32;;
58615;SDS011;44385;51.992;4.206;2023-04-15T12:06:38;5.85;;;3.90;;
58615;SDS011;44385;51.992;4.206;2023-04-15T12:09:10;8.18;;;4.10;;
58615;SDS011;44385;51.992;4.206;2023-04-15T12:11:40;5.47;;;3.97;;
58615;SDS011;44385;51.992;4.206;2023-04-15T12:14:08;4.82;;;4.07;;
58615;SDS011;44385;51.992;4.206;2023-04-15T12:16:35;3.80;;;3.40;;
58615;SDS011;44385;51.992;4.206;2023-04-15T12:19:04;5.80;;;4.18;;
58615;SDS011;44385;51.992;4.206;2023-04-15T12:21:32;5.35;;;3.97;;
58615;SDS011;44385;51.992;4.206;2023-04-15T12:24:00;4.38;;;3.13;;
58615;SDS011;44385;51.992;4.206;2023-04-15T12:26:29;5.72;;;3.28;;
58615;SDS011;44385;51.992;4.206;2023-04-15T12:28:59;9.40;;;4.47;;
58615;SDS011;44385;51.992;4.206;2023-04-15T12:31:26;7.45;;;4.38;;
58615;SDS011;44385;51.992;4.206;2023-04-15T12:33:53;6.57;;;4.35;;
58615;SDS011;44385;51.992;4.206;2023-04-15T12:36:20;9.13;;;5.28;;
58615;SDS011;44385;51.992;4.206;2023-04-15T12:38:46;7.35;;;4.57;;
58615;SDS011;44385;51.992;4.206;2023-04-15T12:41:13;7.57;;;5.13;;
58615;SDS011;44385;51.992;4.206;2023-04-15T12:43:40;7.75;;;4.68;;
58615;SDS011;44385;51.992;4.206;2023-04-15T12:46:07;10.13;;;5.93;;
58615;SDS011;44385;51.992;4.206;2023-04-15T12:48:34;7.72;;;5.00;;
58615;SDS011;44385;51.992;4.206;2023-04-15T12:51:00;7.70;;;5.55;;
58615;SDS011;44385;51.992;4.206;2023-04-15T12:53:27;9.48;;;5.15;;
58615;SDS011;44385;51.992;4.206;2023-04-15T12:55:54;5.93;;;5.05;;
58615;SDS011;44385;51.992;4.206;2023-04-15T12:58:20;8.02;;;5.13;;
58615;SDS011;44385;51.992;4.206;2023-04-15T13:00:49;9.18;;;4.68;;
58615;SDS011;44385;51.992;4.206;2023-04-15T13:03:16;8.57;;;4.82;;
58615;SDS011;44385;51.992;4.206;2023-04-15T13:05:42;7.18;;;4.45;;
58615;SDS011;44385;51.992;4.206;2023-04-15T13:08:09;9.75;;;3.97;;
58615;SDS011;44385;51.992;4.206;2023-04-15T13:10:36;9.77;;;5.22;;
58615;SDS011;44385;51.992;4.206;2023-04-15T13:13:02;9.18;;;4.15;;
58615;SDS011;44385;51.992;4.206;2023-04-15T13:15:29;7.43;;;3.55;;
58615;SDS011;44385;51.992;4.206;2023-04-15T13:18:00;4.85;;;3.60;;
58615;SDS011;44385;51.992;4.206;2023-04-15T13:20:26;6.43;;;3.28;;
58615;SDS011;44385;51.992;4.206;2023-04-15T13:22:53;7.65;;;3.50;;
58615;SDS011;44385;51.992;4.206;2023-04-15T13:25:20;5.18;;;2.80;;
58615;SDS011;44385;51.992;4.206;2023-04-15T13:27:46;7.50;;;2.85;;
58615;SDS011;44385;51.992;4.206;2023-04-15T13:30:13;4.45;;;2.70;;
58615;SDS011;44385;51.992;4.206;2023-04-15T13:32:39;7.35;;;2.78;;
58615;SDS011;44385;51.992;4.206;2023-04-15T13:35:07;6.57;;;2.88;;
58615;SDS011;44385;51.992;4.206;2023-04-15T13:37:34;6.15;;;2.70;;
58615;SDS011;44385;51.992;4.206;2023-04-15T13:40:01;8.20;;;3.33;;
58615;SDS011;44385;51.992;4.206;2023-04-15T13:42:27;6.20;;;3.38;;
58615;SDS011;44385;51.992;4.206;2023-04-15T13:44:54;10.20;;;3.58;;
58615;SDS011;44385;51.992;4.206;2023-04-15T13:47:21;6.15;;;2.85;;
58615;SDS011;44385;51.992;4.206;2023-04-15T13:49:47;7.38;;;3.05;;
58615;SDS011;44385;51.992;4.206;2023-04-15T13:52:15;8.15;;;3.03;;
58615;SDS011;44385;51.992;4.206;2023-04-15T13:54:41;6.50;;;2.60;;
58615;SDS011;44385;51.992;4.206;2023-04-15T13:57:08;6.88;;;2.38;;
58615;SDS011;44385;51.992;4.206;2023-04-15T13:59:34;8.35;;;2.70;;
58615;SDS011;44385;51.992;4.206;2023-04-15T14:02:01;6.35;;;2.92;;
58615;SDS011;44385;51.992;4.206;2023-04-15T14:04:27;7.15;;;2.33;;
58615;SDS011;44385;51.992;4.206;2023-04-15T14:06:54;4.80;;;1.80;;
58615;SDS011;44385;51.992;4.206;2023-04-15T14:09:22;3.45;;;1.77;;
58615;SDS011;44385;51.992;4.206;2023-04-15T14:11:49;5.07;;;2.27;;
58615;SDS011;44385;51.992;4.206;2023-04-15T14:14:16;2.35;;;2.10;;
58615;SDS011;44385;51.992;4.206;2023-04-15T14:16:42;9.05;;;3.42;;
58615;SDS011;44385;51.992;4.206;2023-04-15T14:19:09;7.82;;;2.75;;
58615;SDS011;44385;51.992;4.206;2023-04-15T14:21:35;6.47;;;2.15;;
58615;SDS011;44385;51.992;4.206;2023-04-15T14:24:02;4.80;;;2.30;;
58615;SDS011;44385;51.992;4.206;2023-04-15T14:26:32;6.53;;;2.60;;
58615;SDS011;44385;51.992;4.206;2023-04-15T14:28:58;4.28;;;2.35;;
58615;SDS011;44385;51.992;4.206;2023-04-15T14:31:25;7.38;;;3.05;;
58615;SDS011;44385;51.992;4.206;2023-04-15T14:33:51;7.15;;;2.92;;
58615;SDS011;44385;51.992;4.206;2023-04-15T14:36:17;11.63;;;3.10;;
58615;SDS011;44385;51.992;4.206;2023-04-15T14:38:44;5.75;;;2.53;;
58615;SDS011;44385;51.992;4.206;2023-04-15T14:41:10;7.80;;;4.28;;
58615;SDS011;44385;51.992;4.206;2023-04-15T14:43:38;9.23;;;3.28;;
58615;SDS011;44385;51.992;4.206;2023-04-15T14:46:05;8.70;;;3.53;;
58615;SDS011;44385;51.992;4.206;2023-04-15T14:48:32;10.02;;;3.83;;
58615;SDS011;44385;51.992;4.206;2023-04-15T14:50:58;11.20;;;4.22;;
58615;SDS011;44385;51.992;4.206;2023-04-15T14:53:25;7.72;;;3.25;;